Latest Weather Observations for Braidwood

IDN60801

Issued at 6:32 pm EST Sunday 23 July 2017 (issued every 30 minutes, with the page automatically refreshed every 10 minutes)

About weather observations | Map of weather stations | Latest weather observations for NSW | Other Formats
Station Details ID: 069132 Name: BRAIDWOOD RACECOURSE AWS Lat: -35.43 Lon: 149.78 Height: 665.2 m
Data from the previous 72 hours. | See also: Recent months at Braidwood
Date/Time
EST
Temp
°C
App
Temp
°C
Dew
Point
°C
Rel
Hum
%
Delta-T
°C
Wind Press
QNH
hPa
Press
MSL
hPa
Rain since
9am
mm
Dir  Spd
km/h
Gust
km/h
Spd
kts
Gust
kts
23/06:30pm 9.8 2.9 0.2 51 4.0 NW 26 43 14 23 1013.2 1014.2 0.0
23/06:00pm 10.2 3.3 0.0 49 4.3 NW 26 43 14 23 1012.7 1013.6 0.0
23/05:35pm 10.7 3.4 -0.1 47 4.5 NW 28 46 15 25 1011.9 1012.9 0.0
23/05:30pm 10.9 2.8 -0.2 46 4.7 NW 32 46 17 25 1011.7 1012.6 0.0
23/05:00pm 12.0 3.7 -0.2 43 5.2 NW 33 61 18 33 1011.0 1011.9 0.0
23/04:30pm 13.0 4.3 -0.3 40 5.7 NW 35 54 19 29 1010.6 1011.6 0.0
23/04:00pm 13.5 3.3 -0.5 38 6.0 WNW 43 65 23 35 1010.3 1011.2 0.0
23/03:30pm 14.1 4.3 -0.4 37 6.3 WNW 41 61 22 33 1010.0 1010.9 0.0
23/03:00pm 14.7 5.6 -0.6 35 6.6 WNW 37 59 20 32 1010.1 1011.0 0.0
23/02:30pm 14.9 7.4 -1.2 33 6.9 NW 28 57 15 31 1010.4 1011.3 0.0
23/02:00pm 14.6 8.6 -1.5 33 6.8 NW 20 37 11 20 1010.8 1011.8 0.0
23/01:30pm 14.6 10.7 -1.5 33 6.8 NNW 9 22 5 12 1011.4 1012.3 0.0
23/01:00pm 14.0 9.2 -2.4 32 6.8 NW 13 24 7 13 1012.0 1013.0 0.0
23/12:30pm 13.2 7.2 -2.7 33 6.5 NW 19 35 10 19 1012.7 1013.6 0.0
23/12:00pm 12.5 5.9 -3.3 33 6.3 NW 22 37 12 20 1013.4 1014.4 0.0
23/11:30am 11.5 5.5 -3.4 35 5.9 NW 19 37 10 20 1014.3 1015.2 0.0
23/11:00am 11.1 5.1 -3.0 37 5.6 NW 19 35 10 19 1015.0 1016.0 0.0
23/10:30am 10.2 2.8 -3.5 38 5.3 NW 26 41 14 22 1015.2 1016.2 0.0
23/10:00am 9.4 1.6 -3.5 40 4.9 NW 28 41 15 22 1015.3 1016.3 0.0
23/09:30am 8.7 3.1 -2.9 44 4.5 NNW 17 30 9 16 1016.1 1017.1 0.0
23/09:00am 7.7 2.6 -2.3 49 3.9 NNW 15 26 8 14 1016.4 1017.4 0.0
23/08:30am 6.2 0.7 -2.4 54 3.3 NNW 17 32 9 17 1016.3 1017.3 0.0
23/08:00am 4.3 -1.7 -2.8 60 2.6 NNW 19 33 10 18 1016.0 1017.0 0.0
23/07:30am 2.9 -2.3 -3.0 65 2.1 NW 15 26 8 14 1015.6 1016.7 0.0
23/07:00am 4.5 -2.1 -3.3 57 2.8 NW 22 33 12 18 1016.1 1017.1 0.0
23/06:30am 5.7 -0.4 -3.6 51 3.4 NW 19 30 10 16 1015.9 1016.9 0.0
23/06:00am 4.0 -0.1 -2.8 61 2.5 NNW 9 15 5 8 1016.0 1017.0 0.0
23/05:30am 4.1 -1.1 -2.5 62 2.4 NW 15 24 8 13 1016.2 1017.2 0.0
23/05:00am 4.0 -1.2 -2.6 62 2.4 NW 15 22 8 12 1016.2 1017.2 0.0
23/04:30am 4.8 -0.7 -2.3 60 2.7 NW 17 28 9 15 1016.2 1017.2 0.0
23/04:00am 4.8 0.0 -2.5 59 2.7 NW 13 20 7 11 1016.4 1017.4 0.0
23/03:30am 5.9 -0.1 -2.7 54 3.2 NW 19 30 10 16 1016.5 1017.5 0.0
23/03:00am 4.8 1.7 -2.5 59 2.7 ENE 4 9 2 5 1016.6 1017.6 0.0
23/02:30am 5.1 1.4 -2.9 56 3.0 NW 7 15 4 8 1016.9 1018.0 0.0
23/02:00am 4.4 0.8 -3.6 56 2.9 NNW 6 13 3 7 1016.8 1017.9 0.0
23/01:30am 2.8 0.1 -2.7 67 2.0 N 2 9 1 5 1016.9 1018.0 0.0
23/01:00am 2.5 -1.4 -4.7 59 2.5 NNW 7 11 4 6 1016.9 1018.0 0.0
23/12:30am 3.8 0.1 -3.2 60 2.5 NW 7 13 4 7 1017.1 1018.2 0.0
23/12:00am 4.6 0.4 -3.9 54 3.0 NW 9 15 5 8 1017.4 1018.4 0.0
 
Date/Time
EST
Temp
°C
App
Temp
°C
Dew
Point
°C
Rel
Hum
%
Delta-T
°C
Wind Press
QNH
hPa
Press
MSL
hPa
Rain since
9am
mm
Dir  Spd
km/h
Gust
km/h
Spd
kts
Gust
kts
22/11:30pm 3.8 -0.4 -3.9 57 2.7 NW 9 13 5 7 1017.5 1018.5 0.0
22/11:00pm 1.9 -1.2 -2.6 72 1.6 N 4 7 2 4 1017.6 1018.6 0.0
22/10:30pm 1.2 -2.1 -4.6 65 2.0 NNW 4 6 2 3 1017.6 1018.6 0.0
22/10:00pm 1.4 -2.0 -4.9 63 2.2 WNW 4 7 2 4 1017.9 1018.9 0.0
22/09:30pm 3.5 -0.6 -2.7 64 2.3 NNW 9 15 5 8 1017.6 1018.6 0.0
22/09:00pm 3.3 0.1 -3.7 60 2.5 N 4 9 2 5 1018.1 1019.2 0.0
22/08:30pm 3.6 0.3 -4.6 55 2.9 NE 4 9 2 5 1018.1 1019.2 0.0
22/08:00pm 2.7 -0.6 -4.5 59 2.5 NNW 4 6 2 3 1018.2 1019.3 0.0
22/07:30pm 3.8 0.4 -4.9 53 3.0 N 4 9 2 5 1018.4 1019.5 0.0
22/07:00pm 4.8 0.2 -3.7 54 3.1 NW 11 20 6 11 1017.9 1018.9 0.0
22/06:30pm 5.8 2.0 -3.8 50 3.5 N 7 13 4 7 1018.1 1019.2 0.0
22/06:00pm 6.8 2.2 -4.0 46 4.0 NW 11 20 6 11 1017.7 1018.7 0.0
22/05:30pm 6.3 1.6 -4.7 45 3.9 NW 11 19 6 10 1017.6 1018.6 0.0
22/05:00pm 8.7 3.2 -5.5 36 5.1 NW 15 24 8 13 1017.5 1018.5 0.0
22/04:30pm 10.7 5.0 -7.0 28 6.4 NW 15 22 8 12 1017.9 1018.9 0.0
22/04:00pm 11.7 4.7 -7.6 25 6.9 NW 22 32 12 17 1017.8 1018.8 0.0
22/03:30pm 12.2 5.2 -7.2 25 7.1 WNW 22 30 12 16 1018.0 1019.0 0.0
22/03:00pm 12.7 6.2 -7.9 23 7.4 WNW 19 32 10 17 1017.9 1018.9 0.0
22/02:30pm 12.8 6.1 -8.4 22 7.6 WNW 20 28 11 15 1018.2 1019.3 0.0
22/02:00pm 12.5 4.7 -8.0 23 7.3 WNW 26 37 14 20 1018.4 1019.5 0.0
22/01:30pm 12.8 6.0 -8.9 21 7.7 WNW 20 30 11 16 1018.7 1019.8 0.0
22/01:00pm 12.7 6.5 -8.4 22 7.5 WNW 17 26 9 14 1019.2 1020.2 0.0
22/12:30pm 12.4 6.3 -8.1 23 7.3 NW 17 30 9 16 1019.5 1020.6 0.0
22/12:00pm 11.6 7.0 -4.5 32 6.2 NNW 11 19 6 10 1020.1 1021.2 0.0
22/11:30am 11.4 5.0 -6.4 28 6.5 NW 19 28 10 15 1020.4 1021.5 0.0
22/11:00am 9.7 6.3 -5.0 35 5.4 NW 4 9 2 5 1020.9 1022.0 0.0
22/10:30am 8.9 5.3 -3.6 41 4.8 NNW 6 9 3 5 1021.3 1022.4 0.0
22/10:00am 6.4 3.3 0.1 64 2.5 NNW 6 9 3 5 1021.4 1022.5 0.0
22/09:30am 3.8 0.8 0.8 81 1.2 NNW 6 11 3 6 1021.4 1022.5 0.0
22/09:00am 1.2 -1.5 0.0 92 0.5 N 4 6 2 3 1021.6 1022.7 0.0
22/08:30am -0.2 -2.6 -0.6 97 0.1 N 2 6 1 3 1021.6 1022.7 0.0
22/08:00am -2.3 -5.0 -2.6 98 0.0 N 2 4 1 2 1021.7 1022.8 0.0
22/07:30am -6.8 -10.1 -8.0 91 0.1 NE 2 6 1 3 1021.6 1022.7 0.0
22/07:00am -4.5 -7.1 -4.9 97 -0.1 CALM 0 0 0 0 1021.5 1022.6 0.0
22/06:30am -6.0 -8.8 -6.5 96 -0.1 CALM 0 0 0 0 1021.3 1022.4 0.0
22/06:00am -4.9 -7.5 -5.2 98 -0.1 CALM 0 0 0 0 1021.4 1022.5 0.0
22/05:30am -6.3 -9.1 -6.8 96 -0.1 CALM 0 0 0 0 1021.0 1022.1 0.0
22/05:00am -7.9 -10.9 -8.8 93 0.0 CALM 0 0 0 0 1020.9 1022.0 0.0
22/04:30am -6.4 -9.2 -6.9 96 -0.1 CALM 0 0 0 0 1021.0 1022.1 0.0
22/04:00am -7.1 -10.0 -7.6 96 -0.1 CALM 0 0 0 0 1021.2 1022.3 0.0
22/03:30am -6.7 -9.5 -7.4 95 0.0 CALM 0 0 0 0 1021.3 1022.4 0.0
22/03:00am -6.4 -9.2 -7.2 94 0.0 CALM 0 0 0 0 1021.5 1022.6 0.0
22/02:47am -6.2 -9.0 -6.9 95 0.0 CALM 0 0 0 0 1021.7 1022.8 0.0
22/02:35am -5.8 -8.6 -6.5 95 0.0 CALM 0 0 0 0 1021.7 1022.8 0.0
22/02:30am -6.1 -8.9 -6.9 94 0.0 CALM 0 0 0 0 1021.7 1022.8 0.0
22/02:00am -6.2 -9.0 -7.1 93 0.0 CALM 0 0 0 0 1021.8 1022.9 0.0
22/01:30am -4.0 -6.5 -4.4 97 0.0 CALM 0 0 0 0 1022.0 1023.2 0.0
22/01:00am -5.0 -7.7 -5.8 94 0.0 CALM 0 0 0 0 1022.3 1023.4 0.0
22/12:30am -4.9 -7.6 -5.9 93 0.1 CALM 0 0 0 0 1022.6 1023.7 0.0
22/12:00am -4.1 -6.7 -5.1 93 0.1 CALM 0 0 0 0 1022.8 1023.9 0.0
 
Date/Time
EST
Temp
°C
App
Temp
°C
Dew
Point
°C
Rel
Hum
%
Delta-T
°C
Wind Press
QNH
hPa
Press
MSL
hPa
Rain since
9am
mm
Dir  Spd
km/h
Gust
km/h
Spd
kts
Gust
kts
21/11:30pm -4.0 -6.6 -5.0 93 0.2 CALM 0 0 0 0 1023.1 1024.2 0.0
21/11:00pm -3.6 -6.2 -4.6 93 0.2 CALM 0 0 0 0 1023.2 1024.4 0.0
21/10:30pm -3.3 -5.8 -4.4 92 0.2 CALM 0 0 0 0 1023.3 1024.5 0.0
21/10:00pm -2.9 -5.4 -4.0 92 0.2 CALM 0 0 0 0 1023.3 1024.5 0.0
21/09:30pm -2.6 -5.1 -3.9 91 0.3 CALM 0 0 0 0 1023.0 1024.1 0.0
21/09:00pm -1.6 -4.0 -3.0 90 0.4 CALM 0 0 0 0 1022.7 1023.8 0.0
21/08:30pm -1.2 -3.6 -3.1 87 0.6 CALM 0 0 0 0 1022.4 1023.5 0.0
21/08:00pm -0.9 -3.3 -3.4 83 0.8 CALM 0 0 0 0 1022.6 1023.7 0.0
21/07:30pm 0.1 -2.3 -3.1 79 1.1 CALM 0 0 0 0 1022.5 1023.6 0.0
21/07:00pm 2.1 -0.1 -1.5 77 1.3 CALM 0 0 0 0 1022.3 1023.4 0.0
21/06:30pm 2.9 0.7 -1.6 72 1.7 CALM 0 0 0 0 1022.2 1023.3 0.0
21/06:00pm 3.4 1.2 -1.7 69 1.9 CALM 0 0 0 0 1021.8 1022.9 0.0
21/05:30pm 4.4 2.2 -1.8 64 2.3 CALM 0 0 0 0 1021.8 1022.9 0.0
21/05:00pm 6.4 4.1 -2.0 55 3.2 CALM 0 0 0 0 1021.6 1022.7 0.0
21/04:30pm 9.6 6.2 -0.3 50 4.1 SSW 7 9 4 5 1021.4 1022.5 0.0
21/04:00pm 9.9 5.7 -0.6 48 4.3 SSW 11 17 6 9 1021.3 1022.4 0.0
21/03:30pm 10.1 6.3 -0.7 47 4.5 SSW 9 17 5 9 1021.0 1022.1 0.0
21/03:00pm 10.7 7.0 -0.1 47 4.5 SSW 9 17 5 9 1020.8 1021.9 0.0
21/02:30pm 10.7 6.6 -0.1 47 4.5 WSW 11 20 6 11 1020.8 1021.9 0.0
21/02:00pm 10.3 6.1 -0.8 46 4.6 S 11 19 6 10 1020.9 1022.0 0.0
21/01:30pm 10.4 6.6 -0.4 47 4.5 WSW 9 13 5 7 1021.0 1022.1 0.0
21/01:00pm 10.0 7.3 0.1 50 4.1 SW 4 11 2 6 1021.0 1022.1 0.0
21/12:30pm 9.3 6.0 0.2 53 3.8 SSW 7 13 4 7 1021.3 1022.4 0.0
21/12:00pm 9.1 5.5 0.3 54 3.7 SW 9 15 5 8 1021.5 1022.6 0.0
21/11:30am 8.9 4.9 0.4 55 3.6 SSW 11 17 6 9 1021.9 1023.1 0.0
21/11:00am 8.5 3.0 0.5 57 3.3 SSE 19 28 10 15 1022.0 1023.2 0.0
21/10:30am 8.2 3.4 0.2 57 3.3 S 15 30 8 16 1022.2 1023.3 0.0
21/10:00am 7.0 3.9 0.0 61 2.8 SSW 6 9 3 5 1022.0 1023.2 0.0
21/09:30am 5.9 2.5 -0.6 63 2.6 SSW 7 11 4 6 1021.8 1022.9 0.0
21/09:00am 5.0 1.5 -1.0 65 2.3 SW 7 11 4 6 1021.5 1022.6 0.0
21/08:30am 3.9 0.6 -1.1 70 1.9 SW 6 9 3 5 1021.1 1022.2 0.0
21/08:00am 2.0 -0.3 -2.0 75 1.5 CALM 0 2 0 1 1020.8 1021.9 0.0
21/07:30am 0.4 -2.4 -3.1 77 1.2 S 2 4 1 2 1020.6 1021.6 0.0
21/07:00am 1.5 -2.5 -2.6 74 1.5 SSW 9 11 5 6 1020.1 1021.2 0.0
21/06:30am 0.7 -3.4 -3.0 76 1.3 S 9 15 5 8 1019.6 1020.7 0.0
21/06:00am 1.6 -3.6 -2.5 74 1.5 SSE 15 22 8 12 1019.4 1020.5 0.0
21/05:30am 3.0 -2.0 -1.0 75 1.5 SSW 15 24 8 13 1018.7 1019.8 0.0
21/05:00am 1.0 -4.2 -2.7 76 1.4 SSW 15 20 8 11 1018.5 1019.6 0.0
21/04:30am 2.3 -2.4 -1.7 75 1.5 SSE 13 19 7 10 1018.2 1019.3 0.0
21/04:00am 2.3 -3.2 -2.2 72 1.6 S 17 20 9 11 1018.1 1019.2 0.0
21/03:30am 3.5 -2.0 -1.8 68 2.0 SSW 17 32 9 17 1018.0 1019.0 0.0
21/03:00am 1.7 -2.1 -3.4 69 1.9 SSE 7 13 4 7 1017.9 1018.9 0.0
21/02:30am 3.9 -1.6 -2.1 65 2.2 SW 17 28 9 15 1017.6 1018.6 0.0
21/02:00am 2.5 -1.4 -1.8 73 1.6 SSW 9 20 5 11 1017.7 1018.7 0.0
21/01:30am 1.1 -2.7 -3.7 70 1.7 WSW 7 17 4 9 1017.5 1018.5 0.0
21/01:00am 1.3 -2.5 -4.1 67 1.9 WSW 7 15 4 8 1017.5 1018.5 0.0
21/12:30am 2.1 -2.5 -3.8 65 2.1 SW 11 17 6 9 1017.2 1018.3 0.0
21/12:00am 1.9 -2.0 -4.2 64 2.2 WNW 7 11 4 6 1016.9 1018.0 0.0
 
Date/Time
EST
Temp
°C
App
Temp
°C
Dew
Point
°C
Rel
Hum
%
Delta-T
°C
Wind Press
QNH
hPa
Press
MSL
hPa
Rain since
9am
mm
Dir  Spd
km/h
Gust
km/h
Spd
kts
Gust
kts
20/11:30pm 0.7 -4.3 -4.5 68 1.8 W 13 17 7 9 1016.8 1017.9 0.0
20/11:00pm -0.5 -3.5 -4.7 73 1.4 WSW 2 7 1 4 1016.9 1018.0 0.0
20/10:30pm -0.7 -4.6 -4.9 73 1.4 NNW 7 13 4 7 1016.8 1017.9 0.0
20/10:00pm 1.6 -2.6 -3.5 69 1.9 WSW 9 15 5 8 1016.4 1017.4 0.0
20/09:30pm 1.9 -2.4 -4.6 62 2.3 SW 9 17 5 9 1016.2 1017.2 0.0
20/09:00pm 3.0 -1.5 -3.6 62 2.3 SW 11 20 6 11 1016.3 1017.3 0.0
20/08:30pm 3.9 -1.4 -3.4 59 2.6 SW 15 26 8 14 1016.0 1017.0 0.0
20/08:00pm 4.2 0.2 -2.4 62 2.4 S 9 19 5 10 1015.5 1016.5 0.0
20/07:30pm 4.3 0.7 -1.9 64 2.3 SSE 7 15 4 8 1015.2 1016.2 0.0
20/07:00pm 4.4 -0.2 -1.2 67 2.1 SSW 13 26 7 14 1015.5 1016.5 0.0

Other Formats:

Comma delimited format used in spreadsheet applications
http://www.bom.gov.au/fwo/IDN60801/IDN60801.94927.axf

JavaScript Object Notation format (JSON) in row-major order
http://www.bom.gov.au/fwo/IDN60801/IDN60801.94927.json